sensor_id;sensor_type;location;lat;lon;timestamp;P1;durP1;ratioP1;P2;durP2;ratioP2
22470;SDS011;11402;51.374;6.594;2023-11-18T00:02:11;21.60;;;15.18;;
22470;SDS011;11402;51.374;6.594;2023-11-18T00:04:38;21.58;;;16.08;;
22470;SDS011;11402;51.374;6.594;2023-11-18T00:07:04;21.10;;;15.55;;
22470;SDS011;11402;51.374;6.594;2023-11-18T00:09:30;22.13;;;15.52;;
22470;SDS011;11402;51.374;6.594;2023-11-18T00:11:56;19.70;;;15.30;;
22470;SDS011;11402;51.374;6.594;2023-11-18T00:14:22;20.92;;;15.60;;
22470;SDS011;11402;51.374;6.594;2023-11-18T00:16:48;20.58;;;15.10;;
22470;SDS011;11402;51.374;6.594;2023-11-18T00:19:14;20.73;;;15.85;;
22470;SDS011;11402;51.374;6.594;2023-11-18T00:21:40;21.00;;;15.23;;
22470;SDS011;11402;51.374;6.594;2023-11-18T00:24:07;21.63;;;15.88;;
22470;SDS011;11402;51.374;6.594;2023-11-18T00:26:34;21.35;;;14.80;;
22470;SDS011;11402;51.374;6.594;2023-11-18T00:29:00;20.38;;;15.35;;
22470;SDS011;11402;51.374;6.594;2023-11-18T00:31:26;21.00;;;16.00;;
22470;SDS011;11402;51.374;6.594;2023-11-18T00:33:52;21.98;;;15.23;;
22470;SDS011;11402;51.374;6.594;2023-11-18T00:36:18;22.60;;;14.75;;
22470;SDS011;11402;51.374;6.594;2023-11-18T00:38:44;20.67;;;15.20;;
22470;SDS011;11402;51.374;6.594;2023-11-18T00:41:10;20.08;;;14.73;;
22470;SDS011;11402;51.374;6.594;2023-11-18T00:43:37;18.60;;;14.27;;
22470;SDS011;11402;51.374;6.594;2023-11-18T00:46:03;19.52;;;15.02;;
22470;SDS011;11402;51.374;6.594;2023-11-18T00:48:30;20.80;;;14.40;;
22470;SDS011;11402;51.374;6.594;2023-11-18T00:50:56;18.70;;;14.15;;
22470;SDS011;11402;51.374;6.594;2023-11-18T00:53:22;16.25;;;12.93;;
22470;SDS011;11402;51.374;6.594;2023-11-18T00:55:49;21.80;;;15.60;;
22470;SDS011;11402;51.374;6.594;2023-11-18T00:58:16;19.88;;;15.07;;
22470;SDS011;11402;51.374;6.594;2023-11-18T01:00:42;21.98;;;15.80;;
22470;SDS011;11402;51.374;6.594;2023-11-18T01:03:08;19.17;;;14.90;;
22470;SDS011;11402;51.374;6.594;2023-11-18T01:05:35;19.33;;;15.02;;
22470;SDS011;11402;51.374;6.594;2023-11-18T01:08:01;18.77;;;14.15;;
22470;SDS011;11402;51.374;6.594;2023-11-18T01:10:27;17.58;;;13.70;;
22470;SDS011;11402;51.374;6.594;2023-11-18T01:12:54;20.08;;;14.23;;
22470;SDS011;11402;51.374;6.594;2023-11-18T01:15:22;15.93;;;13.73;;
22470;SDS011;11402;51.374;6.594;2023-11-18T01:17:48;17.73;;;13.88;;
22470;SDS011;11402;51.374;6.594;2023-11-18T01:20:14;19.77;;;13.52;;
22470;SDS011;11402;51.374;6.594;2023-11-18T01:22:46;14.77;;;12.70;;
22470;SDS011;11402;51.374;6.594;2023-11-18T01:25:13;16.38;;;12.48;;
22470;SDS011;11402;51.374;6.594;2023-11-18T01:27:42;14.80;;;12.38;;
22470;SDS011;11402;51.374;6.594;2023-11-18T01:30:11;14.65;;;11.95;;
22470;SDS011;11402;51.374;6.594;2023-11-18T01:32:37;17.00;;;12.15;;
22470;SDS011;11402;51.374;6.594;2023-11-18T01:35:05;15.75;;;11.73;;
22470;SDS011;11402;51.374;6.594;2023-11-18T01:37:33;14.60;;;12.15;;
22470;SDS011;11402;51.374;6.594;2023-11-18T01:39:59;15.57;;;12.45;;
22470;SDS011;11402;51.374;6.594;2023-11-18T01:42:30;16.42;;;12.13;;
22470;SDS011;11402;51.374;6.594;2023-11-18T01:44:56;14.98;;;11.90;;
22470;SDS011;11402;51.374;6.594;2023-11-18T01:47:24;12.52;;;11.02;;
22470;SDS011;11402;51.374;6.594;2023-11-18T01:49:51;10.20;;;8.98;;
22470;SDS011;11402;51.374;6.594;2023-11-18T01:52:17;10.05;;;8.93;;
22470;SDS011;11402;51.374;6.594;2023-11-18T01:54:43;10.93;;;9.00;;
22470;SDS011;11402;51.374;6.594;2023-11-18T01:57:09;11.25;;;9.23;;
22470;SDS011;11402;51.374;6.594;2023-11-18T01:59:36;9.57;;;8.43;;
22470;SDS011;11402;51.374;6.594;2023-11-18T02:02:03;9.20;;;8.02;;
22470;SDS011;11402;51.374;6.594;2023-11-18T02:04:30;10.90;;;9.13;;
22470;SDS011;11402;51.374;6.594;2023-11-18T02:06:56;11.45;;;9.65;;
22470;SDS011;11402;51.374;6.594;2023-11-18T02:09:22;8.65;;;7.28;;
22470;SDS011;11402;51.374;6.594;2023-11-18T02:14:21;13.15;;;10.50;;
22470;SDS011;11402;51.374;6.594;2023-11-18T02:16:52;14.73;;;11.75;;
22470;SDS011;11402;51.374;6.594;2023-11-18T02:19:22;15.32;;;11.93;;
22470;SDS011;11402;51.374;6.594;2023-11-18T02:21:49;14.82;;;12.10;;
22470;SDS011;11402;51.374;6.594;2023-11-18T02:24:28;15.48;;;11.65;;
22470;SDS011;11402;51.374;6.594;2023-11-18T02:26:59;14.63;;;11.20;;
22470;SDS011;11402;51.374;6.594;2023-11-18T02:29:25;15.52;;;11.77;;
22470;SDS011;11402;51.374;6.594;2023-11-18T02:31:52;14.02;;;11.35;;
22470;SDS011;11402;51.374;6.594;2023-11-18T02:34:21;14.90;;;11.95;;
22470;SDS011;11402;51.374;6.594;2023-11-18T02:36:48;16.42;;;12.13;;
22470;SDS011;11402;51.374;6.594;2023-11-18T02:39:38;14.40;;;11.70;;
22470;SDS011;11402;51.374;6.594;2023-11-18T02:42:03;14.55;;;12.23;;
22470;SDS011;11402;51.374;6.594;2023-11-18T02:44:33;16.50;;;12.43;;
22470;SDS011;11402;51.374;6.594;2023-11-18T02:47:01;14.27;;;11.63;;
22470;SDS011;11402;51.374;6.594;2023-11-18T02:49:27;14.65;;;12.10;;
22470;SDS011;11402;51.374;6.594;2023-11-18T02:51:55;15.07;;;12.45;;
22470;SDS011;11402;51.374;6.594;2023-11-18T02:54:21;16.27;;;13.32;;
22470;SDS011;11402;51.374;6.594;2023-11-18T02:56:47;14.85;;;12.48;;
22470;SDS011;11402;51.374;6.594;2023-11-18T02:59:13;16.17;;;12.73;;
22470;SDS011;11402;51.374;6.594;2023-11-18T03:01:39;14.82;;;12.27;;
22470;SDS011;11402;51.374;6.594;2023-11-18T03:04:06;15.70;;;12.75;;
22470;SDS011;11402;51.374;6.594;2023-11-18T03:06:33;15.75;;;12.93;;
22470;SDS011;11402;51.374;6.594;2023-11-18T03:09:00;17.48;;;13.70;;
22470;SDS011;11402;51.374;6.594;2023-11-18T03:11:27;16.65;;;13.25;;
22470;SDS011;11402;51.374;6.594;2023-11-18T03:13:57;16.60;;;12.85;;
22470;SDS011;11402;51.374;6.594;2023-11-18T03:16:23;17.23;;;14.13;;
22470;SDS011;11402;51.374;6.594;2023-11-18T03:18:49;17.20;;;13.10;;
22470;SDS011;11402;51.374;6.594;2023-11-18T03:21:16;13.65;;;11.90;;
22470;SDS011;11402;51.374;6.594;2023-11-18T03:23:42;9.63;;;7.65;;
22470;SDS011;11402;51.374;6.594;2023-11-18T03:26:08;14.82;;;12.70;;
22470;SDS011;11402;51.374;6.594;2023-11-18T03:28:37;18.15;;;14.35;;
22470;SDS011;11402;51.374;6.594;2023-11-18T03:31:04;19.38;;;14.77;;
22470;SDS011;11402;51.374;6.594;2023-11-18T03:33:30;17.58;;;14.00;;
22470;SDS011;11402;51.374;6.594;2023-11-18T03:35:56;20.08;;;15.35;;
22470;SDS011;11402;51.374;6.594;2023-11-18T03:38:22;19.02;;;15.15;;
22470;SDS011;11402;51.374;6.594;2023-11-18T03:40:49;19.52;;;14.27;;
22470;SDS011;11402;51.374;6.594;2023-11-18T03:43:17;19.13;;;15.20;;
22470;SDS011;11402;51.374;6.594;2023-11-18T03:45:43;17.67;;;14.85;;
22470;SDS011;11402;51.374;6.594;2023-11-18T03:48:09;17.77;;;14.55;;
22470;SDS011;11402;51.374;6.594;2023-11-18T03:50:39;19.48;;;14.63;;
22470;SDS011;11402;51.374;6.594;2023-11-18T03:53:05;18.60;;;13.82;;
22470;SDS011;11402;51.374;6.594;2023-11-18T03:55:31;16.48;;;13.63;;
22470;SDS011;11402;51.374;6.594;2023-11-18T03:57:58;16.23;;;13.00;;
22470;SDS011;11402;51.374;6.594;2023-11-18T04:00:24;18.10;;;14.15;;
22470;SDS011;11402;51.374;6.594;2023-11-18T04:02:57;17.73;;;13.65;;
22470;SDS011;11402;51.374;6.594;2023-11-18T04:05:23;18.05;;;13.88;;
22470;SDS011;11402;51.374;6.594;2023-11-18T04:07:49;19.65;;;13.02;;
22470;SDS011;11402;51.374;6.594;2023-11-18T04:10:15;17.00;;;13.23;;
22470;SDS011;11402;51.374;6.594;2023-11-18T04:12:43;18.98;;;13.90;;
22470;SDS011;11402;51.374;6.594;2023-11-18T04:15:12;17.55;;;13.13;;
22470;SDS011;11402;51.374;6.594;2023-11-18T04:17:38;17.00;;;12.52;;
22470;SDS011;11402;51.374;6.594;2023-11-18T04:20:05;16.63;;;13.55;;
22470;SDS011;11402;51.374;6.594;2023-11-18T04:22:39;16.52;;;13.02;;
22470;SDS011;11402;51.374;6.594;2023-11-18T04:25:06;18.95;;;13.43;;
22470;SDS011;11402;51.374;6.594;2023-11-18T04:27:32;18.38;;;13.35;;
22470;SDS011;11402;51.374;6.594;2023-11-18T04:29:58;19.50;;;13.98;;
22470;SDS011;11402;51.374;6.594;2023-11-18T04:32:24;18.67;;;14.25;;
22470;SDS011;11402;51.374;6.594;2023-11-18T04:34:50;17.42;;;13.77;;
22470;SDS011;11402;51.374;6.594;2023-11-18T04:37:16;18.30;;;14.07;;
22470;SDS011;11402;51.374;6.594;2023-11-18T04:39:43;18.52;;;14.13;;
22470;SDS011;11402;51.374;6.594;2023-11-18T04:42:09;11.90;;;9.63;;
22470;SDS011;11402;51.374;6.594;2023-11-18T04:44:35;0.00;;;0.00;;
22470;SDS011;11402;51.374;6.594;2023-11-18T04:47:01;8.45;;;7.40;;
22470;SDS011;11402;51.374;6.594;2023-11-18T04:49:27;11.43;;;9.95;;
22470;SDS011;11402;51.374;6.594;2023-11-18T04:51:53;9.50;;;8.50;;
22470;SDS011;11402;51.374;6.594;2023-11-18T04:54:19;14.60;;;12.02;;
22470;SDS011;11402;51.374;6.594;2023-11-18T04:56:45;13.85;;;11.70;;
22470;SDS011;11402;51.374;6.594;2023-11-18T04:59:11;15.30;;;12.18;;
22470;SDS011;11402;51.374;6.594;2023-11-18T05:01:37;15.00;;;11.88;;
22470;SDS011;11402;51.374;6.594;2023-11-18T05:04:03;15.68;;;12.55;;
22470;SDS011;11402;51.374;6.594;2023-11-18T05:06:29;14.60;;;12.25;;
22470;SDS011;11402;51.374;6.594;2023-11-18T05:08:55;14.80;;;12.35;;
22470;SDS011;11402;51.374;6.594;2023-11-18T05:11:21;14.20;;;12.00;;
22470;SDS011;11402;51.374;6.594;2023-11-18T05:13:47;13.95;;;11.60;;
22470;SDS011;11402;51.374;6.594;2023-11-18T05:16:14;14.30;;;11.15;;
22470;SDS011;11402;51.374;6.594;2023-11-18T05:18:40;14.45;;;11.43;;
22470;SDS011;11402;51.374;6.594;2023-11-18T05:21:06;8.23;;;7.43;;
22470;SDS011;11402;51.374;6.594;2023-11-18T05:23:35;11.30;;;9.82;;
22470;SDS011;11402;51.374;6.594;2023-11-18T05:26:01;13.88;;;11.75;;
22470;SDS011;11402;51.374;6.594;2023-11-18T05:28:30;12.85;;;11.27;;
22470;SDS011;11402;51.374;6.594;2023-11-18T05:30:56;12.57;;;11.15;;
22470;SDS011;11402;51.374;6.594;2023-11-18T05:33:23;13.52;;;11.10;;
22470;SDS011;11402;51.374;6.594;2023-11-18T05:35:49;11.75;;;10.35;;
22470;SDS011;11402;51.374;6.594;2023-11-18T05:38:16;12.77;;;10.82;;
22470;SDS011;11402;51.374;6.594;2023-11-18T05:40:49;11.48;;;9.82;;
22470;SDS011;11402;51.374;6.594;2023-11-18T05:43:22;11.30;;;10.10;;
22470;SDS011;11402;51.374;6.594;2023-11-18T05:45:50;11.18;;;9.77;;
22470;SDS011;11402;51.374;6.594;2023-11-18T05:48:35;11.90;;;10.43;;
22470;SDS011;11402;51.374;6.594;2023-11-18T05:51:01;8.40;;;7.60;;
22470;SDS011;11402;51.374;6.594;2023-11-18T05:53:27;12.60;;;11.13;;
22470;SDS011;11402;51.374;6.594;2023-11-18T05:55:54;15.57;;;12.65;;
22470;SDS011;11402;51.374;6.594;2023-11-18T05:58:20;16.92;;;13.23;;
22470;SDS011;11402;51.374;6.594;2023-11-18T06:00:46;17.27;;;13.32;;
22470;SDS011;11402;51.374;6.594;2023-11-18T06:03:13;16.20;;;13.18;;
22470;SDS011;11402;51.374;6.594;2023-11-18T06:05:39;16.27;;;12.65;;
22470;SDS011;11402;51.374;6.594;2023-11-18T06:08:05;15.23;;;12.65;;
22470;SDS011;11402;51.374;6.594;2023-11-18T06:10:32;14.65;;;12.10;;
22470;SDS011;11402;51.374;6.594;2023-11-18T06:12:59;17.20;;;12.73;;
22470;SDS011;11402;51.374;6.594;2023-11-18T06:15:25;16.23;;;13.07;;
22470;SDS011;11402;51.374;6.594;2023-11-18T06:17:52;14.68;;;11.77;;
22470;SDS011;11402;51.374;6.594;2023-11-18T06:20:20;15.32;;;12.70;;
22470;SDS011;11402;51.374;6.594;2023-11-18T06:22:48;14.30;;;11.93;;
22470;SDS011;11402;51.374;6.594;2023-11-18T06:25:14;17.20;;;12.05;;
22470;SDS011;11402;51.374;6.594;2023-11-18T06:27:43;15.65;;;12.55;;
22470;SDS011;11402;51.374;6.594;2023-11-18T06:30:11;14.38;;;11.40;;
22470;SDS011;11402;51.374;6.594;2023-11-18T06:32:37;13.80;;;11.48;;
22470;SDS011;11402;51.374;6.594;2023-11-18T06:35:04;13.25;;;10.60;;
22470;SDS011;11402;51.374;6.594;2023-11-18T06:37:33;11.25;;;9.23;;
22470;SDS011;11402;51.374;6.594;2023-11-18T06:40:00;13.98;;;11.55;;
22470;SDS011;11402;51.374;6.594;2023-11-18T06:42:26;14.07;;;10.60;;
22470;SDS011;11402;51.374;6.594;2023-11-18T06:44:52;5.93;;;5.32;;
22470;SDS011;11402;51.374;6.594;2023-11-18T06:47:18;10.05;;;8.32;;
22470;SDS011;11402;51.374;6.594;2023-11-18T06:49:45;14.73;;;11.93;;
22470;SDS011;11402;51.374;6.594;2023-11-18T06:52:12;12.88;;;10.93;;
22470;SDS011;11402;51.374;6.594;2023-11-18T06:54:40;12.35;;;10.43;;
22470;SDS011;11402;51.374;6.594;2023-11-18T06:57:06;12.30;;;10.05;;
22470;SDS011;11402;51.374;6.594;2023-11-18T06:59:32;11.80;;;10.20;;
22470;SDS011;11402;51.374;6.594;2023-11-18T07:01:59;11.73;;;9.82;;
22470;SDS011;11402;51.374;6.594;2023-11-18T07:04:25;13.77;;;10.00;;
22470;SDS011;11402;51.374;6.594;2023-11-18T07:06:51;11.75;;;9.93;;
22470;SDS011;11402;51.374;6.594;2023-11-18T07:09:17;11.40;;;8.77;;
22470;SDS011;11402;51.374;6.594;2023-11-18T07:11:45;8.02;;;7.20;;
22470;SDS011;11402;51.374;6.594;2023-11-18T07:14:12;12.10;;;10.48;;
22470;SDS011;11402;51.374;6.594;2023-11-18T07:16:40;7.68;;;6.45;;
22470;SDS011;11402;51.374;6.594;2023-11-18T07:19:06;4.07;;;2.85;;
22470;SDS011;11402;51.374;6.594;2023-11-18T07:21:32;0.00;;;0.00;;
22470;SDS011;11402;51.374;6.594;2023-11-18T07:23:58;4.13;;;3.70;;
22470;SDS011;11402;51.374;6.594;2023-11-18T07:26:25;13.32;;;11.52;;
22470;SDS011;11402;51.374;6.594;2023-11-18T07:28:51;14.15;;;10.95;;
22470;SDS011;11402;51.374;6.594;2023-11-18T07:31:17;14.52;;;11.57;;
22470;SDS011;11402;51.374;6.594;2023-11-18T07:33:43;14.00;;;11.23;;
22470;SDS011;11402;51.374;6.594;2023-11-18T07:36:13;14.30;;;11.13;;
22470;SDS011;11402;51.374;6.594;2023-11-18T07:38:40;10.95;;;9.25;;
22470;SDS011;11402;51.374;6.594;2023-11-18T07:41:06;13.57;;;10.30;;
22470;SDS011;11402;51.374;6.594;2023-11-18T07:43:33;13.70;;;10.82;;
22470;SDS011;11402;51.374;6.594;2023-11-18T07:46:01;12.38;;;10.32;;
22470;SDS011;11402;51.374;6.594;2023-11-18T07:48:27;12.60;;;10.45;;
22470;SDS011;11402;51.374;6.594;2023-11-18T07:50:56;12.93;;;10.27;;
22470;SDS011;11402;51.374;6.594;2023-11-18T07:53:22;11.77;;;9.70;;
22470;SDS011;11402;51.374;6.594;2023-11-18T07:55:48;12.13;;;10.25;;
22470;SDS011;11402;51.374;6.594;2023-11-18T07:58:15;12.15;;;10.30;;
22470;SDS011;11402;51.374;6.594;2023-11-18T08:00:43;13.02;;;10.48;;
22470;SDS011;11402;51.374;6.594;2023-11-18T08:03:12;10.90;;;9.80;;
22470;SDS011;11402;51.374;6.594;2023-11-18T08:05:40;12.68;;;10.23;;
22470;SDS011;11402;51.374;6.594;2023-11-18T08:08:06;11.38;;;10.07;;
22470;SDS011;11402;51.374;6.594;2023-11-18T08:10:33;10.27;;;9.15;;
22470;SDS011;11402;51.374;6.594;2023-11-18T08:13:02;10.48;;;8.48;;
22470;SDS011;11402;51.374;6.594;2023-11-18T08:15:28;9.25;;;8.15;;
22470;SDS011;11402;51.374;6.594;2023-11-18T08:17:56;8.50;;;7.70;;
22470;SDS011;11402;51.374;6.594;2023-11-18T08:20:22;8.68;;;7.03;;
22470;SDS011;11402;51.374;6.594;2023-11-18T08:22:50;7.03;;;6.32;;
22470;SDS011;11402;51.374;6.594;2023-11-18T08:25:16;8.38;;;7.38;;
22470;SDS011;11402;51.374;6.594;2023-11-18T08:27:42;8.27;;;7.38;;
22470;SDS011;11402;51.374;6.594;2023-11-18T08:30:11;8.10;;;7.30;;
22470;SDS011;11402;51.374;6.594;2023-11-18T08:32:38;7.80;;;6.75;;
22470;SDS011;11402;51.374;6.594;2023-11-18T08:35:07;10.38;;;7.50;;
22470;SDS011;11402;51.374;6.594;2023-11-18T08:37:34;9.65;;;7.40;;
22470;SDS011;11402;51.374;6.594;2023-11-18T08:40:02;9.05;;;7.53;;
22470;SDS011;11402;51.374;6.594;2023-11-18T08:42:28;8.27;;;7.10;;
22470;SDS011;11402;51.374;6.594;2023-11-18T08:44:55;7.25;;;6.55;;
22470;SDS011;11402;51.374;6.594;2023-11-18T08:47:21;7.47;;;6.78;;
22470;SDS011;11402;51.374;6.594;2023-11-18T08:49:47;7.60;;;6.80;;
22470;SDS011;11402;51.374;6.594;2023-11-18T08:52:13;7.03;;;6.30;;
22470;SDS011;11402;51.374;6.594;2023-11-18T08:54:39;2.17;;;1.98;;
22470;SDS011;11402;51.374;6.594;2023-11-18T08:57:25;7.80;;;7.00;;
22470;SDS011;11402;51.374;6.594;2023-11-18T08:59:51;8.18;;;7.38;;
22470;SDS011;11402;51.374;6.594;2023-11-18T09:02:17;7.35;;;6.63;;
22470;SDS011;11402;51.374;6.594;2023-11-18T09:04:48;8.73;;;7.07;;
22470;SDS011;11402;51.374;6.594;2023-11-18T09:07:14;12.00;;;10.85;;
22470;SDS011;11402;51.374;6.594;2023-11-18T09:09:40;9.13;;;7.30;;
22470;SDS011;11402;51.374;6.594;2023-11-18T09:12:06;7.85;;;7.05;;
22470;SDS011;11402;51.374;6.594;2023-11-18T09:14:33;8.40;;;7.60;;
22470;SDS011;11402;51.374;6.594;2023-11-18T09:16:59;8.85;;;7.03;;
22470;SDS011;11402;51.374;6.594;2023-11-18T09:19:27;7.60;;;6.80;;
22470;SDS011;11402;51.374;6.594;2023-11-18T09:21:53;8.52;;;7.40;;
22470;SDS011;11402;51.374;6.594;2023-11-18T09:24:20;8.32;;;7.20;;
22470;SDS011;11402;51.374;6.594;2023-11-18T09:26:50;7.63;;;6.82;;
22470;SDS011;11402;51.374;6.594;2023-11-18T09:29:17;7.13;;;6.43;;
22470;SDS011;11402;51.374;6.594;2023-11-18T09:31:45;8.65;;;6.72;;
22470;SDS011;11402;51.374;6.594;2023-11-18T09:34:13;7.15;;;6.45;;
22470;SDS011;11402;51.374;6.594;2023-11-18T09:36:42;7.20;;;6.50;;
22470;SDS011;11402;51.374;6.594;2023-11-18T09:39:08;6.78;;;6.07;;
22470;SDS011;11402;51.374;6.594;2023-11-18T09:41:41;6.97;;;6.28;;
22470;SDS011;11402;51.374;6.594;2023-11-18T09:44:08;8.45;;;6.50;;
22470;SDS011;11402;51.374;6.594;2023-11-18T09:46:37;7.13;;;6.43;;
22470;SDS011;11402;51.374;6.594;2023-11-18T09:49:12;6.22;;;5.63;;
22470;SDS011;11402;51.374;6.594;2023-11-18T09:51:43;6.90;;;6.20;;
22470;SDS011;11402;51.374;6.594;2023-11-18T09:54:16;7.75;;;5.90;;
22470;SDS011;11402;51.374;6.594;2023-11-18T10:01:59;6.10;;;5.60;;
22470;SDS011;11402;51.374;6.594;2023-11-18T10:04:25;6.38;;;5.70;;
22470;SDS011;11402;51.374;6.594;2023-11-18T10:06:52;5.88;;;5.28;;
22470;SDS011;11402;51.374;6.594;2023-11-18T10:09:19;5.80;;;5.18;;
22470;SDS011;11402;51.374;6.594;2023-11-18T10:11:53;6.63;;;5.13;;
22470;SDS011;11402;51.374;6.594;2023-11-18T10:14:25;5.32;;;4.78;;
22470;SDS011;11402;51.374;6.594;2023-11-18T10:16:51;5.47;;;4.97;;
22470;SDS011;11402;51.374;6.594;2023-11-18T10:19:19;5.68;;;4.90;;
22470;SDS011;11402;51.374;6.594;2023-11-18T10:21:46;5.28;;;4.78;;
22470;SDS011;11402;51.374;6.594;2023-11-18T10:24:15;5.13;;;4.70;;
22470;SDS011;11402;51.374;6.594;2023-11-18T10:26:44;5.38;;;4.88;;
22470;SDS011;11402;51.374;6.594;2023-11-18T10:29:11;4.85;;;4.45;;
22470;SDS011;11402;51.374;6.594;2023-11-18T10:31:38;5.10;;;4.60;;
22470;SDS011;11402;51.374;6.594;2023-11-18T10:34:13;5.13;;;4.50;;
22470;SDS011;11402;51.374;6.594;2023-11-18T10:36:58;5.05;;;4.55;;
22470;SDS011;11402;51.374;6.594;2023-11-18T10:39:27;5.05;;;4.60;;
22470;SDS011;11402;51.374;6.594;2023-11-18T10:41:58;4.38;;;3.97;;
22470;SDS011;11402;51.374;6.594;2023-11-18T10:44:24;4.13;;;3.78;;
22470;SDS011;11402;51.374;6.594;2023-11-18T10:46:51;4.15;;;3.75;;
22470;SDS011;11402;51.374;6.594;2023-11-18T10:49:23;4.50;;;4.10;;
22470;SDS011;11402;51.374;6.594;2023-11-18T10:51:50;4.50;;;4.10;;
22470;SDS011;11402;51.374;6.594;2023-11-18T10:54:16;0.57;;;0.57;;
22470;SDS011;11402;51.374;6.594;2023-11-18T10:56:50;3.92;;;3.60;;
22470;SDS011;11402;51.374;6.594;2023-11-18T10:59:21;3.90;;;3.50;;
22470;SDS011;11402;51.374;6.594;2023-11-18T11:01:47;3.97;;;3.60;;
22470;SDS011;11402;51.374;6.594;2023-11-18T11:04:14;4.50;;;3.97;;
22470;SDS011;11402;51.374;6.594;2023-11-18T11:06:46;4.43;;;3.72;;
22470;SDS011;11402;51.374;6.594;2023-11-18T11:09:19;4.15;;;3.70;;
22470;SDS011;11402;51.374;6.594;2023-11-18T11:11:51;4.20;;;3.80;;
22470;SDS011;11402;51.374;6.594;2023-11-18T11:14:20;4.00;;;3.33;;
22470;SDS011;11402;51.374;6.594;2023-11-18T11:16:54;4.00;;;3.60;;
22470;SDS011;11402;51.374;6.594;2023-11-18T11:19:31;3.60;;;3.30;;
22470;SDS011;11402;51.374;6.594;2023-11-18T11:22:09;3.70;;;3.40;;
22470;SDS011;11402;51.374;6.594;2023-11-18T11:25:09;4.40;;;3.30;;
22470;SDS011;11402;51.374;6.594;2023-11-18T11:27:46;4.00;;;3.47;;
22470;SDS011;11402;51.374;6.594;2023-11-18T11:30:23;4.10;;;3.50;;
22470;SDS011;11402;51.374;6.594;2023-11-18T11:32:52;3.33;;;3.03;;
22470;SDS011;11402;51.374;6.594;2023-11-18T11:35:21;3.38;;;3.08;;
22470;SDS011;11402;51.374;6.594;2023-11-18T11:37:48;3.10;;;2.80;;
22470;SDS011;11402;51.374;6.594;2023-11-18T11:40:15;3.33;;;3.03;;
22470;SDS011;11402;51.374;6.594;2023-11-18T11:42:47;3.60;;;2.78;;
22470;SDS011;11402;51.374;6.594;2023-11-18T11:45:13;3.20;;;2.90;;
22470;SDS011;11402;51.374;6.594;2023-11-18T11:47:46;4.28;;;2.80;;
22470;SDS011;11402;51.374;6.594;2023-11-18T11:50:16;3.22;;;2.80;;
22470;SDS011;11402;51.374;6.594;2023-11-18T11:52:48;2.70;;;2.50;;
22470;SDS011;11402;51.374;6.594;2023-11-18T11:55:20;3.10;;;2.60;;
22470;SDS011;11402;51.374;6.594;2023-11-18T11:57:52;3.55;;;2.70;;
22470;SDS011;11402;51.374;6.594;2023-11-18T12:00:18;3.25;;;2.80;;
22470;SDS011;11402;51.374;6.594;2023-11-18T12:02:50;2.80;;;2.60;;
22470;SDS011;11402;51.374;6.594;2023-11-18T12:05:19;2.70;;;2.40;;
22470;SDS011;11402;51.374;6.594;2023-11-18T12:07:50;2.60;;;2.28;;
22470;SDS011;11402;51.374;6.594;2023-11-18T12:10:19;2.88;;;2.60;;
22470;SDS011;11402;51.374;6.594;2023-11-18T12:12:48;3.58;;;2.65;;
22470;SDS011;11402;51.374;6.594;2023-11-18T12:15:17;3.38;;;2.50;;
22470;SDS011;11402;51.374;6.594;2023-11-18T12:20:42;2.45;;;2.10;;
22470;SDS011;11402;51.374;6.594;2023-11-18T12:23:28;2.97;;;2.35;;
22470;SDS011;11402;51.374;6.594;2023-11-18T12:25:55;3.80;;;2.08;;
22470;SDS011;11402;51.374;6.594;2023-11-18T12:28:32;1.30;;;1.20;;
22470;SDS011;11402;51.374;6.594;2023-11-18T12:31:10;2.38;;;2.10;;
22470;SDS011;11402;51.374;6.594;2023-11-18T12:36:32;2.22;;;2.00;;
22470;SDS011;11402;51.374;6.594;2023-11-18T12:41:55;3.28;;;2.22;;
22470;SDS011;11402;51.374;6.594;2023-11-18T12:44:31;2.08;;;1.73;;
22470;SDS011;11402;51.374;6.594;2023-11-18T12:47:04;0.90;;;0.90;;
22470;SDS011;11402;51.374;6.594;2023-11-18T12:49:43;2.30;;;2.10;;
22470;SDS011;11402;51.374;6.594;2023-11-18T12:52:10;2.83;;;2.17;;
22470;SDS011;11402;51.374;6.594;2023-11-18T12:54:36;2.47;;;2.28;;
22470;SDS011;11402;51.374;6.594;2023-11-18T12:57:03;2.58;;;2.20;;
22470;SDS011;11402;51.374;6.594;2023-11-18T12:59:33;3.80;;;2.40;;
22470;SDS011;11402;51.374;6.594;2023-11-18T13:01:59;2.38;;;2.17;;
22470;SDS011;11402;51.374;6.594;2023-11-18T13:04:29;3.42;;;2.63;;
22470;SDS011;11402;51.374;6.594;2023-11-18T13:06:55;2.47;;;2.28;;
22470;SDS011;11402;51.374;6.594;2023-11-18T13:09:22;3.25;;;2.33;;
22470;SDS011;11402;51.374;6.594;2023-11-18T13:11:54;3.65;;;2.10;;
22470;SDS011;11402;51.374;6.594;2023-11-18T13:14:21;3.22;;;2.08;;
22470;SDS011;11402;51.374;6.594;2023-11-18T13:16:50;4.25;;;2.20;;
22470;SDS011;11402;51.374;6.594;2023-11-18T13:19:26;3.83;;;2.22;;
22470;SDS011;11402;51.374;6.594;2023-11-18T13:21:59;1.92;;;1.70;;
22470;SDS011;11402;51.374;6.594;2023-11-18T13:24:28;0.57;;;0.47;;
22470;SDS011;11402;51.374;6.594;2023-11-18T13:26:54;0.98;;;0.88;;
22470;SDS011;11402;51.374;6.594;2023-11-18T13:29:22;3.22;;;2.10;;
22470;SDS011;11402;51.374;6.594;2023-11-18T13:31:49;4.28;;;2.35;;
22470;SDS011;11402;51.374;6.594;2023-11-18T13:34:16;3.13;;;2.28;;
22470;SDS011;11402;51.374;6.594;2023-11-18T13:36:42;2.10;;;1.90;;
22470;SDS011;11402;51.374;6.594;2023-11-18T13:39:09;1.73;;;1.63;;
22470;SDS011;11402;51.374;6.594;2023-11-18T13:41:42;0.13;;;0.13;;
22470;SDS011;11402;51.374;6.594;2023-11-18T13:44:09;0.00;;;0.00;;
22470;SDS011;11402;51.374;6.594;2023-11-18T13:46:41;0.35;;;0.35;;
22470;SDS011;11402;51.374;6.594;2023-11-18T13:49:07;2.03;;;1.05;;
22470;SDS011;11402;51.374;6.594;2023-11-18T13:51:33;1.60;;;0.90;;
22470;SDS011;11402;51.374;6.594;2023-11-18T13:54:01;1.10;;;0.98;;
22470;SDS011;11402;51.374;6.594;2023-11-18T13:56:28;0.93;;;0.88;;
22470;SDS011;11402;51.374;6.594;2023-11-18T13:58:55;1.10;;;0.90;;
22470;SDS011;11402;51.374;6.594;2023-11-18T14:01:21;0.95;;;0.80;;
22470;SDS011;11402;51.374;6.594;2023-11-18T14:03:47;1.58;;;0.90;;
22470;SDS011;11402;51.374;6.594;2023-11-18T14:06:13;1.25;;;1.10;;
22470;SDS011;11402;51.374;6.594;2023-11-18T14:08:42;1.05;;;0.75;;
22470;SDS011;11402;51.374;6.594;2023-11-18T14:11:09;0.00;;;0.00;;
22470;SDS011;11402;51.374;6.594;2023-11-18T14:13:35;0.00;;;0.00;;
22470;SDS011;11402;51.374;6.594;2023-11-18T14:16:02;0.00;;;0.00;;
22470;SDS011;11402;51.374;6.594;2023-11-18T14:18:29;0.00;;;0.00;;
22470;SDS011;11402;51.374;6.594;2023-11-18T14:20:55;0.00;;;0.00;;
22470;SDS011;11402;51.374;6.594;2023-11-18T14:23:21;0.00;;;0.00;;
22470;SDS011;11402;51.374;6.594;2023-11-18T14:25:48;0.00;;;0.00;;
22470;SDS011;11402;51.374;6.594;2023-11-18T14:28:14;0.00;;;0.00;;
22470;SDS011;11402;51.374;6.594;2023-11-18T14:30:40;0.68;;;0.45;;
22470;SDS011;11402;51.374;6.594;2023-11-18T14:33:07;1.65;;;1.35;;
22470;SDS011;11402;51.374;6.594;2023-11-18T14:35:33;0.00;;;0.00;;
22470;SDS011;11402;51.374;6.594;2023-11-18T14:37:59;0.10;;;0.10;;
22470;SDS011;11402;51.374;6.594;2023-11-18T14:40:26;0.10;;;0.10;;
22470;SDS011;11402;51.374;6.594;2023-11-18T14:42:53;0.00;;;0.00;;
22470;SDS011;11402;51.374;6.594;2023-11-18T14:45:19;3.20;;;1.50;;
22470;SDS011;11402;51.374;6.594;2023-11-18T14:47:46;2.25;;;1.60;;
22470;SDS011;11402;51.374;6.594;2023-11-18T14:50:22;1.45;;;1.20;;
22470;SDS011;11402;51.374;6.594;2023-11-18T14:52:51;1.65;;;0.90;;
22470;SDS011;11402;51.374;6.594;2023-11-18T14:55:23;0.30;;;0.30;;
22470;SDS011;11402;51.374;6.594;2023-11-18T14:57:50;2.30;;;1.50;;